DW8835 La Escala ES current weather conditions

sailwx.info

Wind from 319 at 2 knots gusting 6

Air temperature 22.8° C
Dewpoint 16.1° C

Last reported at 2015-Sep-01 21:13 UTC.
Time now 2015-Sep-02 08:39 UTC

Location: N 42°07' E 003°08'.
View on Google Maps.

See reports from other nearby stations

  
Tides and Currents Weather Stations Pressure Air Temp Water Temp Dewpoint Dewpoint Depression Visibility Wind Speed Wind Dir Waves Ship Positions
date/time (UTC)wind fromknots sea level pressurealtimeterstation pressurevisibilityair tempwater tempwave heightnotes
2015-Sep-01 21:13 319 2 gusting 6 22.8
2015-Sep-01 21:03 342 2 gusting 6 22.8
2015-Sep-01 20:53 335 3 gusting 6 22.8
2015-Sep-01 20:43 338 3 gusting 5 22.8
2015-Sep-01 20:33 311 4 gusting 6 22.8
2015-Sep-01 18:43 325 3 gusting 6 25.0
2015-Sep-01 18:33 318 3 gusting 5 25.0
2015-Sep-01 18:23 340 1 gusting 6 25.0
2015-Sep-01 18:13 346 3 gusting 8 25.0
2015-Sep-01 18:03 332 3 gusting 7 25.0
2015-Sep-01 17:53 005 2 gusting 9 25.6
2015-Sep-01 17:43 105 3 gusting 10 25.6
2015-Sep-01 17:33 059 3 gusting 8 25.6
2015-Sep-01 17:23 055 1 gusting 6 25.6
2015-Sep-01 17:13 079 0 gusting 6 25.6
2015-Sep-01 17:03 062 2 gusting 6 26.1
2015-Sep-01 16:53 092 5 gusting 9 26.1
2015-Sep-01 16:43 102 3 gusting 8 26.1
2015-Sep-01 16:33 089 3 gusting 6 26.1
2015-Sep-01 16:23 105 2 gusting 6 26.1
2015-Sep-01 16:13 108 1 gusting 7 25.6
2015-Sep-01 16:03 119 6 gusting 11 25.6
2015-Sep-01 15:53 123 4 gusting 7 26.1
2015-Sep-01 15:43 161 0 gusting 4 26.1
2015-Sep-01 15:33 081 1 gusting 6 26.1
2015-Sep-01 15:23 092 2 gusting 6 26.1
2015-Sep-01 15:13 065 3 gusting 6 26.1
2015-Sep-01 15:03 049 4 gusting 9 26.7
2015-Sep-01 14:53 348 4 gusting 11 27.2
2015-Sep-01 14:43 055 3 gusting 10 27.2
2015-Sep-01 14:33 032 4 gusting 9 27.8
2015-Sep-01 14:23 043 5 gusting 10 27.2
2015-Sep-01 14:13 005 5 gusting 10 27.2
2015-Sep-01 14:03 025 3 gusting 9 27.8
2015-Sep-01 13:53 010 5 gusting 12 27.2
2015-Sep-01 13:43 360 6 gusting 13 27.2
2015-Sep-01 13:33 044 4 gusting 9 27.2
2015-Sep-01 13:23 054 5 gusting 11 27.2
2015-Sep-01 13:13 064 5 gusting 13 27.2
2015-Sep-01 13:03 086 6 gusting 11 27.2
2015-Sep-01 12:53 064 3 gusting 11 27.8
2015-Sep-01 12:43 067 4 gusting 8 27.2
2015-Sep-01 12:33 318 3 gusting 10 27.2
2015-Sep-01 12:23 027 3 gusting 11 27.2
2015-Sep-01 12:13 360 6 gusting 10 27.2
2015-Sep-01 12:03 034 4 gusting 8 26.7
2015-Sep-01 11:53 069 3 gusting 6 27.2
2015-Sep-01 11:43 088 2 gusting 6 26.7
2015-Sep-01 11:33 093 0 gusting 6 27.2
2015-Sep-01 11:23 012 3 gusting 7 26.7
2015-Sep-01 11:13 064 0 gusting 9 27.2
2015-Sep-01 11:03 005 5 gusting 12 27.8
2015-Sep-01 10:53 022 6 gusting 13 27.2
2015-Sep-01 10:43 336 6 gusting 14 27.2
2015-Sep-01 10:33 337 6 gusting 13 27.2
2015-Sep-01 10:23 332 8 gusting 18 27.2
2015-Sep-01 10:13 331 7 gusting 19 26.7
2015-Sep-01 09:53 067 1 gusting 6 26.1
2015-Sep-01 09:43 080 2 gusting 4 25.6
2015-Sep-01 09:33 083 1 gusting 6 25.6
2015-Sep-01 09:23 074 1 gusting 5 25.6
2015-Sep-01 09:13 024 3 gusting 6 25.6
2015-Sep-01 09:03 012 3 gusting 6 25.0
2015-Sep-01 08:53 020 0 gusting 4 24.4
2015-Sep-01 08:43 040 2 gusting 3 24.4
2015-Sep-01 08:33 24.4
2015-Sep-01 08:13 24.4
2015-Sep-01 08:03 23.9
2015-Sep-01 07:53 23.3
2015-Sep-01 07:43 23.3
2015-Sep-01 07:23 22.8
2015-Sep-01 07:13 22.2
2015-Sep-01 07:03 21.7
2015-Sep-01 06:53 21.1
2015-Sep-01 06:43 20.6
2015-Sep-01 06:33 20.6
2015-Sep-01 06:23 20.0
2015-Sep-01 06:13 19.4
2015-Sep-01 06:03 19.4
2015-Sep-01 05:53 19.4
2015-Sep-01 05:43 19.4
2015-Sep-01 05:33 19.4
2015-Sep-01 05:23 19.4
2015-Sep-01 05:13 19.4
2015-Sep-01 05:03 20.0
2015-Sep-01 04:53 20.0
2015-Sep-01 04:33 20.0
2015-Sep-01 04:23 20.0
2015-Sep-01 04:13 20.0
2015-Sep-01 04:03 20.0
2015-Sep-01 03:53 20.6
2015-Sep-01 03:43 20.6
2015-Sep-01 03:33 20.6
2015-Sep-01 03:23 21.1
2015-Sep-01 03:13 21.7
2015-Sep-01 03:03 22.2
2015-Sep-01 02:53 22.2
2015-Sep-01 02:43 22.2
2015-Sep-01 02:33 22.2
2015-Sep-01 02:23 22.2
2015-Sep-01 02:13 22.2
2015-Sep-01 02:03 22.2
2015-Sep-01 01:53 22.2
2015-Sep-01 01:43 21.7
2015-Sep-01 01:33 22.2
2015-Sep-01 01:23 22.2
2015-Sep-01 01:13 22.2
2015-Sep-01 01:03 22.2
2015-Sep-01 00:53 22.2
2015-Sep-01 00:43 21.7
2015-Sep-01 00:33 21.7
2015-Sep-01 00:23 22.2
2015-Sep-01 00:13 22.2
2015-Sep-01 00:03 22.2
2015-Aug-31 23:53 22.8
2015-Aug-31 23:43 22.8
2015-Aug-31 23:33 22.8
2015-Aug-31 23:23 23.3
2015-Aug-31 23:13 23.9
2015-Aug-31 23:03 25.0
2015-Aug-31 22:53 25.0
2015-Aug-31 22:43 25.0
2015-Aug-31 22:33 25.6
2015-Aug-31 22:23 25.6
2015-Aug-31 22:13 25.6
2015-Aug-31 22:03 25.6
2015-Aug-31 21:53 25.6
2015-Aug-31 21:43 25.6
2015-Aug-31 21:33 25.6
2015-Aug-31 21:23 25.6
2015-Aug-31 21:13 25.6
2015-Aug-31 21:03 26.1
2015-Aug-31 20:53 26.1
2015-Aug-31 20:43 26.1
2015-Aug-31 20:33 25.6
2015-Aug-31 20:23 25.6
2015-Aug-31 20:13 25.6
2015-Aug-31 20:03 25.6
2015-Aug-31 19:53 26.1
2015-Aug-31 19:43 26.1
2015-Aug-31 19:33 26.1
2015-Aug-31 19:23 26.1
2015-Aug-31 19:13 26.1
2015-Aug-31 19:03 26.1
2015-Aug-31 18:53 26.1
2015-Aug-31 18:43 26.1
2015-Aug-31 18:33 26.1
2015-Aug-31 18:23 26.7
2015-Aug-31 18:13 26.7
2015-Aug-31 18:03 26.7
2015-Aug-31 17:53 26.7
2015-Aug-31 17:43 27.2
2015-Aug-31 17:33 27.2
2015-Aug-31 17:23 27.2
2015-Aug-31 17:13 27.2
2015-Aug-31 17:03 27.8
2015-Aug-31 16:53 27.8
2015-Aug-31 16:43 27.8
2015-Aug-31 16:33 27.8
2015-Aug-31 16:23 28.3
2015-Aug-31 16:13 28.3
2015-Aug-31 16:03 28.9
2015-Aug-31 15:53 28.9
2015-Aug-31 15:43 28.9
2015-Aug-31 15:33 28.9
2015-Aug-31 15:13 28.9
2015-Aug-31 15:03 28.9
2015-Aug-31 14:53 28.9
2015-Aug-31 14:43 29.4
2015-Aug-31 14:23 29.4
2015-Aug-31 14:13 29.4
2015-Aug-31 14:03 29.4
2015-Aug-31 13:53 29.4
2015-Aug-31 13:43 30.0
2015-Aug-31 13:33 29.4
2015-Aug-31 13:23 29.4
2015-Aug-31 13:13 29.4
2015-Aug-31 13:03 29.4
2015-Aug-31 12:53 28.9
2015-Aug-31 12:43 28.9
2015-Aug-31 12:33 28.9
2015-Aug-31 12:23 28.9
2015-Aug-31 12:13 28.9
2015-Aug-31 12:03 28.9
2015-Aug-31 11:53 27.2
2015-Aug-31 11:43 26.7
2015-Aug-31 11:33 26.7
2015-Aug-31 11:23 26.1
2015-Aug-31 11:13 25.6
2015-Aug-31 11:03 25.0
2015-Aug-31 10:53 25.6
2015-Aug-31 10:43 25.6
2015-Aug-31 10:33 26.1
2015-Aug-31 10:23 25.6
2015-Aug-31 10:13 25.6
2015-Aug-31 10:03 26.1
2015-Aug-31 09:53 26.1
2015-Aug-31 09:43 25.6
2015-Aug-31 09:33 25.6
2015-Aug-31 09:23 25.6
2015-Aug-31 09:13 25.6
2015-Aug-31 09:03 25.6
2015-Aug-31 08:43 25.0
2015-Aug-31 08:33 25.0
2015-Aug-31 08:23 24.4
2015-Aug-31 08:13 24.4